Time;durP1;ratioP1;P1;durP2;ratioP2;P2;SDS_P1;SDS_P2;PMS_P1;PMS_P2;Temp;Humidity;BMP_temperature;BMP_pressure;BME280_temperature;BME280_humidity;BME280_pressure;Samples;Min_cycle;Max_cycle;Signal;HPM_P1;HPM_P2
2023/08/23 00:01:23;;;;;;;;;;;27.00;52.00;;;;;;4975850;28;87981;-44
2023/08/23 00:03:50;;;;;;;;;;;27.00;51.90;;;;;;4973700;28;87444;-43
2023/08/23 00:06:16;;;;;;;;;;;27.00;52.10;;;;;;4974303;28;87275;-44
2023/08/23 00:08:41;;;;;;;;;;;27.00;52.30;;;;;;4973510;28;87111;-44
2023/08/23 00:11:07;;;;;;;;;;;27.00;52.00;;;;;;4978237;28;89406;-44
2023/08/23 00:13:32;;;;;;;;;;;26.90;52.00;;;;;;4974307;28;88458;-43
2023/08/23 00:15:58;;;;;;;;;;;26.90;52.00;;;;;;4972113;28;87122;-44
2023/08/23 00:18:23;;;;;;;;;;;26.90;51.90;;;;;;4974172;28;87561;-45
2023/08/23 00:20:49;;;;;;;;;;;26.90;52.00;;;;;;4972654;28;87799;-44
2023/08/23 00:23:14;;;;;;;;;;;26.90;52.00;;;;;;4976557;28;86963;-45
2023/08/23 00:25:40;;;;;;;;;;;26.90;52.00;;;;;;4970514;28;87626;-44
2023/08/23 00:28:06;;;;;;;;;;;26.90;52.00;;;;;;4974566;28;87989;-44
2023/08/23 00:30:31;;;;;;;;;;;26.80;51.90;;;;;;4975250;28;87248;-45
2023/08/23 00:32:57;;;;;;;;;;;26.80;52.00;;;;;;4970875;28;88171;-46
2023/08/23 00:35:22;;;;;;;;;;;26.80;51.90;;;;;;4975384;28;87299;-44
2023/08/23 00:37:48;;;;;;;;;;;26.80;52.00;;;;;;4974643;28;88686;-45
2023/08/23 00:40:13;;;;;;;;;;;26.90;52.00;;;;;;4979654;28;88662;-44
2023/08/23 00:42:39;;;;;;;;;;;26.80;51.90;;;;;;4975100;28;87078;-44
2023/08/23 00:45:04;;;;;;;;;;;26.80;52.00;;;;;;4972916;28;88234;-45
2023/08/23 00:47:30;;;;;;;;;;;26.70;52.00;;;;;;4973527;28;87149;-45
2023/08/23 00:49:57;;;;;;;;;;;26.80;52.10;;;;;;5003567;28;88879;-43
2023/08/23 00:52:23;;;;;;;;;;;26.70;52.00;;;;;;4974498;28;88081;-44
2023/08/23 00:54:49;;;;;;;;;;;26.70;51.90;;;;;;4974858;28;86391;-43
2023/08/23 00:57:15;;;;;;;;;;;26.70;51.90;;;;;;4973735;28;87238;-45
2023/08/23 00:59:41;;;;;;;;;;;26.70;51.90;;;;;;4977785;28;87976;-44
2023/08/23 01:02:08;;;;;;;;;;;26.70;52.00;;;;;;4979931;28;88268;-44
2023/08/23 01:04:33;;;;;;;;;;;26.70;51.90;;;;;;4981960;28;88549;-44
2023/08/23 01:07:18;;;;;;;;;;;26.60;51.90;;;;;;4979625;28;87169;-46
2023/08/23 01:10:00;;;;;;;;;;;26.70;52.00;;;;;;4978639;28;88084;-44
2023/08/23 01:12:29;;;;;;;;;;;26.60;51.90;;;;;;4976434;28;88047;-44
2023/08/23 01:15:01;;;;;;;;;;;26.70;52.00;;;;;;4973341;28;88105;-44
2023/08/23 01:17:27;;;;;;;;;;;26.60;51.90;;;;;;4971336;28;87833;-45
2023/08/23 01:19:53;;;;;;;;;;;26.60;51.90;;;;;;4970385;28;88804;-44
2023/08/23 01:22:20;;;;;;;;;;;26.60;51.90;;;;;;4974355;28;87126;-44
2023/08/23 01:24:46;;;;;;;;;;;26.60;52.00;;;;;;4974001;28;87630;-43
2023/08/23 01:27:11;;;;;;;;;;;26.50;52.00;;;;;;4972591;28;90581;-43
2023/08/23 01:29:37;;;;;;;;;;;26.60;52.10;;;;;;4978739;28;88247;-43
2023/08/23 01:32:25;;;;;;;;;;;26.50;52.00;;;;;;4978675;28;88187;-43
2023/08/23 01:34:53;;;;;;;;;;;26.60;52.10;;;;;;4966507;28;87333;-43
2023/08/23 01:37:21;;;;;;;;;;;26.50;52.00;;;;;;4973179;28;87600;-44
2023/08/23 01:39:47;;;;;;;;;;;26.50;51.90;;;;;;4973701;28;88179;-44
2023/08/23 01:42:13;;;;;;;;;;;26.50;52.00;;;;;;4972032;28;87085;-45
2023/08/23 01:44:41;;;;;;;;;;;26.50;51.90;;;;;;4973221;28;87378;-43
2023/08/23 01:47:07;;;;;;;;;;;26.50;52.00;;;;;;4971863;28;88142;-46
2023/08/23 01:49:33;;;;;;;;;;;26.50;52.00;;;;;;4975812;28;87699;-45
2023/08/23 01:51:58;;;;;;;;;;;26.50;52.00;;;;;;4970558;28;88233;-46
2023/08/23 01:54:24;;;;;;;;;;;26.50;52.00;;;;;;4975105;28;87473;-45
2023/08/23 01:56:49;;;;;;;;;;;26.50;52.00;;;;;;4977625;28;87598;-45
2023/08/23 01:59:15;;;;;;;;;;;26.40;51.90;;;;;;4977810;28;88067;-45
2023/08/23 02:01:40;;;;;;;;;;;26.40;52.00;;;;;;4977309;28;87166;-45
2023/08/23 02:04:06;;;;;;;;;;;26.40;52.00;;;;;;4981494;28;87583;-45
2023/08/23 02:06:31;;;;;;;;;;;26.40;52.00;;;;;;4982365;28;88249;-47
2023/08/23 02:08:57;;;;;;;;;;;26.40;51.90;;;;;;4982241;28;86431;-45
2023/08/23 02:11:22;;;;;;;;;;;26.30;51.90;;;;;;4975232;28;87139;-44
2023/08/23 02:13:48;;;;;;;;;;;26.40;52.00;;;;;;4976462;28;87340;-44
2023/08/23 02:16:13;;;;;;;;;;;26.30;52.00;;;;;;4976845;28;88815;-46
2023/08/23 02:18:39;;;;;;;;;;;26.30;52.00;;;;;;4973355;28;88192;-43
2023/08/23 02:21:05;;;;;;;;;;;26.30;52.00;;;;;;4976600;28;87579;-44
2023/08/23 02:23:30;;;;;;;;;;;26.30;52.00;;;;;;4974688;28;87596;-44
2023/08/23 02:25:56;;;;;;;;;;;26.30;52.00;;;;;;4976762;28;88294;-45
2023/08/23 02:28:21;;;;;;;;;;;26.30;52.00;;;;;;4976961;28;87158;-45
2023/08/23 02:30:47;;;;;;;;;;;26.30;52.10;;;;;;4975807;28;88121;-47
2023/08/23 02:33:13;;;;;;;;;;;26.30;52.10;;;;;;4976869;28;86434;-44
2023/08/23 02:35:46;;;;;;;;;;;26.30;52.10;;;;;;4974038;28;87420;-45
2023/08/23 02:38:13;;;;;;;;;;;26.20;52.00;;;;;;4974248;28;87947;-47
2023/08/23 02:40:42;;;;;;;;;;;26.30;52.00;;;;;;4972790;28;88195;-45
2023/08/23 02:43:07;;;;;;;;;;;26.20;52.00;;;;;;4975797;28;88470;-43
2023/08/23 02:45:37;;;;;;;;;;;26.20;52.30;;;;;;4976109;28;87939;-44
2023/08/23 02:48:02;;;;;;;;;;;26.20;51.90;;;;;;5004710;28;87223;-45
2023/08/23 02:50:29;;;;;;;;;;;26.20;52.10;;;;;;4976448;28;87518;-43
2023/08/23 02:52:54;;;;;;;;;;;26.10;52.00;;;;;;4998353;28;88123;-45
2023/08/23 02:55:20;;;;;;;;;;;26.10;52.00;;;;;;4974638;28;87524;-43
2023/08/23 02:57:45;;;;;;;;;;;26.10;52.00;;;;;;4973187;28;87418;-43
2023/08/23 03:00:11;;;;;;;;;;;26.10;52.00;;;;;;4975698;28;88312;-45
2023/08/23 03:02:37;;;;;;;;;;;26.10;52.00;;;;;;4975658;28;89098;-43
2023/08/23 03:05:02;;;;;;;;;;;26.10;52.10;;;;;;4971934;28;89138;-45
2023/08/23 03:07:28;;;;;;;;;;;26.10;52.10;;;;;;4972939;28;87183;-46
2023/08/23 03:09:53;;;;;;;;;;;26.10;52.00;;;;;;4976234;28;87160;-44
2023/08/23 03:12:19;;;;;;;;;;;26.00;52.10;;;;;;4971822;28;88184;-46
2023/08/23 03:14:44;;;;;;;;;;;26.00;52.00;;;;;;4979715;28;87197;-45
2023/08/23 03:17:10;;;;;;;;;;;26.00;52.00;;;;;;4974302;28;87663;-43
2023/08/23 03:19:36;;;;;;;;;;;26.10;52.10;;;;;;4973981;28;87150;-43
2023/08/23 03:22:02;;;;;;;;;;;26.00;52.00;;;;;;4976206;28;88094;-45
2023/08/23 03:24:28;;;;;;;;;;;26.00;52.00;;;;;;4972590;28;88109;-44
2023/08/23 03:26:53;;;;;;;;;;;26.00;52.10;;;;;;4975550;28;86994;-46
2023/08/23 03:29:19;;;;;;;;;;;26.00;52.10;;;;;;4974205;28;88005;-44
2023/08/23 03:31:44;;;;;;;;;;;25.90;52.10;;;;;;4975187;28;87828;-47
2023/08/23 03:34:10;;;;;;;;;;;25.90;52.10;;;;;;4974039;28;87155;-45
2023/08/23 03:36:35;;;;;;;;;;;25.90;52.10;;;;;;4976791;28;87738;-44
2023/08/23 03:39:01;;;;;;;;;;;25.90;52.10;;;;;;4974644;28;87054;-44
2023/08/23 03:41:26;;;;;;;;;;;25.90;52.10;;;;;;4974605;28;87578;-43
2023/08/23 03:43:52;;;;;;;;;;;25.90;52.10;;;;;;4967520;28;88206;-43
2023/08/23 03:46:22;;;;;;;;;;;25.80;52.10;;;;;;4971333;28;86542;-44
2023/08/23 03:48:47;;;;;;;;;;;25.80;52.70;;;;;;4973214;28;87102;-43
2023/08/23 03:51:13;;;;;;;;;;;25.80;52.10;;;;;;4974985;28;87506;-44
2023/08/23 03:53:38;;;;;;;;;;;25.80;52.10;;;;;;4972762;28;89999;-43
2023/08/23 03:56:04;;;;;;;;;;;25.80;52.20;;;;;;4975116;28;87123;-43
2023/08/23 03:58:29;;;;;;;;;;;25.80;52.10;;;;;;4974074;28;87887;-45
2023/08/23 04:00:55;;;;;;;;;;;25.80;52.10;;;;;;4972666;28;87670;-45
2023/08/23 04:03:20;;;;;;;;;;;25.80;52.20;;;;;;4973589;28;87675;-46
2023/08/23 04:05:46;;;;;;;;;;;25.80;52.20;;;;;;4974266;28;87382;-44
2023/08/23 04:08:13;;;;;;;;;;;25.80;52.20;;;;;;4971821;28;87472;-45
2023/08/23 04:10:38;;;;;;;;;;;25.70;52.10;;;;;;4973463;28;87701;-45
2023/08/23 04:13:04;;;;;;;;;;;25.70;52.10;;;;;;4971695;28;88332;-44
2023/08/23 04:15:29;;;;;;;;;;;25.70;52.20;;;;;;4973589;28;87924;-46
2023/08/23 04:17:55;;;;;;;;;;;25.70;52.30;;;;;;4973101;28;87912;-45
2023/08/23 04:20:20;;;;;;;;;;;25.70;52.20;;;;;;4974985;28;88192;-45
2023/08/23 04:22:46;;;;;;;;;;;25.70;52.30;;;;;;4972147;28;88168;-44
2023/08/23 04:25:11;;;;;;;;;;;25.70;52.30;;;;;;4970197;28;87425;-45
2023/08/23 04:27:37;;;;;;;;;;;25.60;52.20;;;;;;4969739;28;87043;-45
2023/08/23 04:30:06;;;;;;;;;;;25.60;52.30;;;;;;4973074;28;88088;-43
2023/08/23 04:32:31;;;;;;;;;;;25.60;52.30;;;;;;4976572;28;88357;-44
2023/08/23 04:34:58;;;;;;;;;;;25.60;52.30;;;;;;4971309;28;86816;-43
2023/08/23 04:37:23;;;;;;;;;;;25.60;52.30;;;;;;4974179;28;88126;-44
2023/08/23 04:39:49;;;;;;;;;;;25.60;52.40;;;;;;4973500;28;87142;-43
2023/08/23 04:42:14;;;;;;;;;;;25.60;52.30;;;;;;4969347;28;89434;-45
2023/08/23 04:44:40;;;;;;;;;;;25.60;52.40;;;;;;4973664;28;87128;-44
2023/08/23 04:47:06;;;;;;;;;;;25.60;52.40;;;;;;4972378;28;87430;-43
2023/08/23 04:49:32;;;;;;;;;;;25.60;52.40;;;;;;4969399;28;88077;-46
2023/08/23 04:51:57;;;;;;;;;;;25.60;52.40;;;;;;4972176;28;87252;-43
2023/08/23 04:54:23;;;;;;;;;;;25.50;52.40;;;;;;4971269;28;88057;-44
2023/08/23 04:56:49;;;;;;;;;;;25.50;52.40;;;;;;4970383;28;87836;-45
2023/08/23 04:59:14;;;;;;;;;;;25.50;52.40;;;;;;4965707;28;86718;-45
2023/08/23 05:01:40;;;;;;;;;;;25.50;52.60;;;;;;4976521;28;87746;-47
2023/08/23 05:04:07;;;;;;;;;;;25.50;52.40;;;;;;4970922;28;87489;-43
2023/08/23 05:06:33;;;;;;;;;;;25.50;52.40;;;;;;4972873;28;88446;-45
2023/08/23 05:08:59;;;;;;;;;;;25.40;52.40;;;;;;4967315;28;87641;-47
2023/08/23 05:11:25;;;;;;;;;;;25.50;52.40;;;;;;4969455;28;87180;-46
2023/08/23 05:13:50;;;;;;;;;;;25.50;52.30;;;;;;4970997;28;87365;-43
2023/08/23 05:16:16;;;;;;;;;;;25.50;52.40;;;;;;4975153;28;88230;-43
2023/08/23 05:18:41;;;;;;;;;;;25.40;52.40;;;;;;4964802;28;88124;-46
2023/08/23 05:21:09;;;;;;;;;;;25.40;52.40;;;;;;4966498;28;87386;-45
2023/08/23 05:23:34;;;;;;;;;;;25.40;52.40;;;;;;4974921;28;87301;-43
2023/08/23 05:26:00;;;;;;;;;;;25.40;52.40;;;;;;4974597;28;86912;-45
2023/08/23 05:28:26;;;;;;;;;;;25.40;52.40;;;;;;4971663;28;88063;-43
2023/08/23 05:30:51;;;;;;;;;;;25.40;52.40;;;;;;4970251;28;88133;-43
2023/08/23 05:33:17;;;;;;;;;;;25.40;52.40;;;;;;4973645;28;87877;-44
2023/08/23 05:35:43;;;;;;;;;;;25.50;52.50;;;;;;4972614;28;88030;-45
2023/08/23 05:38:09;;;;;;;;;;;25.50;52.50;;;;;;4971628;28;87698;-45
2023/08/23 05:40:35;;;;;;;;;;;25.50;52.40;;;;;;4969718;28;87508;-45
2023/08/23 05:43:01;;;;;;;;;;;25.40;52.50;;;;;;4978685;28;88132;-45
2023/08/23 05:45:26;;;;;;;;;;;25.40;52.50;;;;;;4975505;28;87161;-43
2023/08/23 05:47:55;;;;;;;;;;;25.40;52.60;;;;;;4970118;28;87370;-46
2023/08/23 05:50:21;;;;;;;;;;;25.40;52.60;;;;;;4969488;28;87129;-45
2023/08/23 05:52:47;;;;;;;;;;;25.40;52.60;;;;;;4974246;28;87325;-45
2023/08/23 05:55:13;;;;;;;;;;;25.40;52.50;;;;;;4968033;28;89806;-46
2023/08/23 05:57:38;;;;;;;;;;;25.40;52.60;;;;;;4971729;28;88748;-43
2023/08/23 06:00:05;;;;;;;;;;;25.40;52.50;;;;;;4967854;28;87122;-45
2023/08/23 06:02:31;;;;;;;;;;;25.40;52.60;;;;;;4971698;28;89558;-44
2023/08/23 06:04:56;;;;;;;;;;;25.40;52.60;;;;;;4973756;28;88352;-44
2023/08/23 06:07:22;;;;;;;;;;;25.40;52.70;;;;;;4972028;28;87478;-44
2023/08/23 06:09:47;;;;;;;;;;;25.40;52.70;;;;;;4970394;28;87166;-44
2023/08/23 06:12:13;;;;;;;;;;;25.40;52.80;;;;;;4969607;28;87539;-44
2023/08/23 06:14:38;;;;;;;;;;;25.40;52.70;;;;;;4968593;28;88262;-44
2023/08/23 06:17:04;;;;;;;;;;;25.40;52.70;;;;;;4971710;28;87138;-44
2023/08/23 06:19:29;;;;;;;;;;;25.50;52.80;;;;;;4972186;28;87962;-43
2023/08/23 06:21:55;;;;;;;;;;;25.40;52.70;;;;;;4971755;28;88177;-44
2023/08/23 06:24:20;;;;;;;;;;;25.40;52.80;;;;;;4969261;28;87180;-46
2023/08/23 06:26:46;;;;;;;;;;;25.40;52.80;;;;;;4972608;28;87538;-44
2023/08/23 06:29:12;;;;;;;;;;;25.40;52.80;;;;;;4972326;28;88097;-45
2023/08/23 06:31:37;;;;;;;;;;;25.40;52.80;;;;;;4971568;28;87338;-45
2023/08/23 06:34:03;;;;;;;;;;;25.40;52.80;;;;;;4973248;28;89176;-43
2023/08/23 06:36:29;;;;;;;;;;;25.40;52.80;;;;;;4974977;28;86368;-46
2023/08/23 06:38:55;;;;;;;;;;;25.40;52.80;;;;;;4969470;28;87089;-44
2023/08/23 06:41:20;;;;;;;;;;;25.40;52.80;;;;;;4975133;28;89873;-44
2023/08/23 06:43:46;;;;;;;;;;;25.40;52.70;;;;;;4973308;28;88258;-43
2023/08/23 06:46:12;;;;;;;;;;;25.40;52.80;;;;;;4975638;28;88366;-44
2023/08/23 06:48:37;;;;;;;;;;;25.40;52.80;;;;;;4975365;28;87019;-43
2023/08/23 06:51:03;;;;;;;;;;;25.40;52.80;;;;;;4975901;28;87205;-43
2023/08/23 06:53:29;;;;;;;;;;;25.40;52.90;;;;;;4968714;28;88101;-44
2023/08/23 06:55:55;;;;;;;;;;;25.50;52.90;;;;;;4972805;28;87721;-46
2023/08/23 06:58:20;;;;;;;;;;;25.50;52.90;;;;;;4971374;28;87472;-44
2023/08/23 07:00:46;;;;;;;;;;;25.50;52.90;;;;;;4974807;28;86468;-45
2023/08/23 07:03:11;;;;;;;;;;;25.40;52.80;;;;;;4972424;28;87893;-45
2023/08/23 07:05:37;;;;;;;;;;;25.50;52.80;;;;;;4970538;28;87462;-45
2023/08/23 07:08:03;;;;;;;;;;;25.40;52.80;;;;;;4989689;28;89670;-45
2023/08/23 07:10:29;;;;;;;;;;;25.50;52.90;;;;;;4977075;28;87176;-43
2023/08/23 07:12:55;;;;;;;;;;;25.50;52.90;;;;;;4973648;28;87657;-44
2023/08/23 07:15:20;;;;;;;;;;;25.40;52.90;;;;;;4971720;28;87012;-43
2023/08/23 07:17:46;;;;;;;;;;;25.50;53.00;;;;;;4975333;28;87473;-46
2023/08/23 07:20:13;;;;;;;;;;;25.50;52.90;;;;;;4988202;28;89901;-45
2023/08/23 07:22:39;;;;;;;;;;;25.40;52.80;;;;;;4972652;28;87476;-49
2023/08/23 07:25:05;;;;;;;;;;;25.40;52.90;;;;;;4970529;28;87376;-44
2023/08/23 07:27:30;;;;;;;;;;;25.50;53.00;;;;;;4975198;28;88096;-44
2023/08/23 07:29:56;;;;;;;;;;;25.40;52.90;;;;;;4971437;28;87177;-43
2023/08/23 07:32:22;;;;;;;;;;;25.50;53.00;;;;;;4976336;28;88226;-44
2023/08/23 07:34:47;;;;;;;;;;;25.50;53.00;;;;;;4973045;28;87405;-44
2023/08/23 07:37:14;;;;;;;;;;;25.50;53.00;;;;;;4973484;28;87594;-47
2023/08/23 07:39:39;;;;;;;;;;;25.40;52.90;;;;;;4972348;28;88412;-46
2023/08/23 07:42:05;;;;;;;;;;;25.50;53.00;;;;;;4973145;28;88812;-43
2023/08/23 07:44:30;;;;;;;;;;;25.50;53.00;;;;;;4974769;28;87595;-44
2023/08/23 07:46:56;;;;;;;;;;;25.50;53.10;;;;;;4974713;28;87840;-43
2023/08/23 07:49:21;;;;;;;;;;;25.50;53.10;;;;;;4974756;28;86495;-45
2023/08/23 07:51:48;;;;;;;;;;;25.50;53.10;;;;;;4974620;28;87171;-44
2023/08/23 07:54:13;;;;;;;;;;;25.50;53.10;;;;;;4974270;28;88167;-43
2023/08/23 07:56:39;;;;;;;;;;;25.50;53.00;;;;;;4973983;28;87959;-44
2023/08/23 07:59:05;;;;;;;;;;;25.50;53.10;;;;;;4972762;28;87705;-45
2023/08/23 08:01:30;;;;;;;;;;;25.50;53.10;;;;;;4973248;28;87331;-44
2023/08/23 08:03:56;;;;;;;;;;;25.50;53.00;;;;;;4971508;28;87135;-46
2023/08/23 08:06:22;;;;;;;;;;;25.50;53.00;;;;;;4971589;28;88104;-45
2023/08/23 08:08:47;;;;;;;;;;;25.50;53.10;;;;;;4973096;28;88282;-45
2023/08/23 08:11:14;;;;;;;;;;;25.50;53.10;;;;;;4971278;28;87611;-44
2023/08/23 08:13:39;;;;;;;;;;;25.50;53.10;;;;;;4972832;28;87499;-45
2023/08/23 08:16:05;;;;;;;;;;;25.60;53.10;;;;;;4976631;28;87164;-43
2023/08/23 08:18:31;;;;;;;;;;;25.50;53.10;;;;;;4971649;28;88003;-43
2023/08/23 08:20:56;;;;;;;;;;;25.50;53.00;;;;;;4973310;28;89319;-47
2023/08/23 08:23:22;;;;;;;;;;;25.50;53.00;;;;;;4971525;28;88480;-46
2023/08/23 08:25:47;;;;;;;;;;;25.50;53.00;;;;;;4974901;28;88278;-45
2023/08/23 08:28:13;;;;;;;;;;;25.50;53.00;;;;;;4973216;28;87100;-45
2023/08/23 08:30:38;;;;;;;;;;;25.60;53.10;;;;;;4970001;28;88711;-46
2023/08/23 08:33:04;;;;;;;;;;;25.60;53.10;;;;;;4972251;28;87010;-44
2023/08/23 08:35:30;;;;;;;;;;;25.60;53.10;;;;;;4974503;28;87166;-44
2023/08/23 08:37:55;;;;;;;;;;;25.50;53.00;;;;;;4971316;28;87650;-46
2023/08/23 08:40:22;;;;;;;;;;;25.60;56.30;;;;;;4973599;28;87210;-56
2023/08/23 08:42:47;;;;;;;;;;;25.60;56.90;;;;;;4971785;28;88782;-57
2023/08/23 08:45:13;;;;;;;;;;;25.60;56.90;;;;;;4970125;28;89146;-60
2023/08/23 08:47:38;;;;;;;;;;;25.80;57.70;;;;;;4974611;28;87207;-54
2023/08/23 08:50:04;;;;;;;;;;;25.80;57.20;;;;;;4971909;28;87122;-56
2023/08/23 08:52:30;;;;;;;;;;;25.80;56.20;;;;;;4972926;28;89704;-52
2023/08/23 08:54:57;;;;;;;;;;;26.00;57.10;;;;;;4972414;28;87576;-49
2023/08/23 08:57:23;;;;;;;;;;;26.20;55.90;;;;;;4976172;28;87209;-53
2023/08/23 08:59:49;;;;;;;;;;;26.20;56.20;;;;;;4973745;28;87138;-60
2023/08/23 09:02:17;;;;;;;;;;;26.30;55.60;;;;;;4972198;28;87299;-54
2023/08/23 09:04:46;;;;;;;;;;;26.30;55.10;;;;;;4973908;28;88244;-58
2023/08/23 09:07:12;;;;;;;;;;;26.30;55.40;;;;;;4971762;28;87471;-53
2023/08/23 09:09:37;;;;;;;;;;;26.40;54.30;;;;;;4973410;28;88644;-54
2023/08/23 09:12:03;;;;;;;;;;;26.40;53.30;;;;;;4971983;28;88136;-56
2023/08/23 09:14:29;;;;;;;;;;;26.50;54.00;;;;;;4987036;28;87077;-49
2023/08/23 09:16:55;;;;;;;;;;;26.60;54.20;;;;;;4974142;28;88195;-60
2023/08/23 09:19:21;;;;;;;;;;;26.60;54.20;;;;;;4975972;28;88104;-56
2023/08/23 09:21:49;;;;;;;;;;;26.70;54.40;;;;;;4977110;28;87531;-45
2023/08/23 09:24:15;;;;;;;;;;;26.80;53.30;;;;;;4973328;28;88129;-51
2023/08/23 09:26:40;;;;;;;;;;;26.80;52.50;;;;;;4972178;28;87182;-52
2023/08/23 09:29:07;;;;;;;;;;;26.90;54.60;;;;;;4970143;28;87233;-52
2023/08/23 09:31:32;;;;;;;;;;;27.00;53.50;;;;;;4969655;28;87945;-52
2023/08/23 09:34:00;;;;;;;;;;;27.00;54.00;;;;;;4972953;28;87954;-44
2023/08/23 09:36:26;;;;;;;;;;;27.00;54.10;;;;;;4970509;28;88538;-48
2023/08/23 09:38:52;;;;;;;;;;;27.00;54.00;;;;;;4973290;28;88131;-45
2023/08/23 09:41:17;;;;;;;;;;;27.00;53.40;;;;;;4975679;28;87289;-48
2023/08/23 09:43:44;;;;;;;;;;;27.00;54.70;;;;;;4971197;28;88174;-46
2023/08/23 09:46:10;;;;;;;;;;;27.00;53.60;;;;;;4970677;28;98477;-48
2023/08/23 09:48:36;;;;;;;;;;;27.00;54.00;;;;;;4992510;28;87552;-53
2023/08/23 09:51:02;;;;;;;;;;;27.10;54.50;;;;;;4974199;28;87551;-47
2023/08/23 09:53:32;;;;;;;;;;;27.10;54.80;;;;;;4971542;28;87196;-49
2023/08/23 09:55:58;;;;;;;;;;;27.10;54.30;;;;;;4971040;28;87515;-49
2023/08/23 09:58:23;;;;;;;;;;;27.10;54.90;;;;;;4973867;28;88409;-48
2023/08/23 10:00:49;;;;;;;;;;;27.10;53.50;;;;;;4972433;28;87121;-51
2023/08/23 10:03:15;;;;;;;;;;;27.10;53.90;;;;;;4974765;28;88681;-45
2023/08/23 10:05:41;;;;;;;;;;;27.20;53.20;;;;;;4971438;28;87112;-48
2023/08/23 10:08:09;;;;;;;;;;;27.20;52.90;;;;;;4973347;28;87674;-47
2023/08/23 10:10:36;;;;;;;;;;;27.30;52.30;;;;;;4972913;28;88264;-49
2023/08/23 10:13:06;;;;;;;;;;;27.20;52.20;;;;;;4970348;28;87267;-48
2023/08/23 10:15:34;;;;;;;;;;;27.20;51.60;;;;;;4972034;28;86610;-47
2023/08/23 10:18:01;;;;;;;;;;;27.20;51.30;;;;;;4975819;28;88176;-51
2023/08/23 10:20:27;;;;;;;;;;;27.20;50.60;;;;;;4973832;28;87195;-52
2023/08/23 10:22:54;;;;;;;;;;;27.30;50.10;;;;;;4976411;28;87967;-50
2023/08/23 10:25:20;;;;;;;;;;;27.40;50.50;;;;;;4975888;28;87352;-52
2023/08/23 10:27:48;;;;;;;;;;;27.50;50.70;;;;;;4976041;28;87438;-47
2023/08/23 10:30:26;;;;;;;;;;;27.60;50.20;;;;;;4976179;28;89641;-45
2023/08/23 10:32:53;;;;;;;;;;;27.60;49.10;;;;;;4973771;28;87135;-47
2023/08/23 10:35:22;;;;;;;;;;;27.50;49.30;;;;;;4976099;28;87011;-50
2023/08/23 10:37:48;;;;;;;;;;;27.60;49.00;;;;;;4974482;28;89839;-50
2023/08/23 10:40:17;;;;;;;;;;;27.60;49.60;;;;;;4974690;28;86432;-47
2023/08/23 10:42:43;;;;;;;;;;;27.60;48.60;;;;;;4976416;28;87074;-48
2023/08/23 10:45:09;;;;;;;;;;;27.60;48.30;;;;;;4970837;28;88183;-48
2023/08/23 10:47:35;;;;;;;;;;;27.60;48.40;;;;;;4978624;28;88051;-46
2023/08/23 10:50:02;;;;;;;;;;;27.70;48.10;;;;;;4973709;28;88326;-48
2023/08/23 10:52:28;;;;;;;;;;;27.70;48.90;;;;;;4975263;28;87091;-46
2023/08/23 10:54:53;;;;;;;;;;;27.70;48.70;;;;;;4974713;28;87474;-47
2023/08/23 10:57:19;;;;;;;;;;;27.80;49.90;;;;;;4973921;28;88043;-44
2023/08/23 10:59:44;;;;;;;;;;;28.00;48.70;;;;;;4974516;28;88785;-55
2023/08/23 11:02:10;;;;;;;;;;;27.90;48.80;;;;;;4973293;28;87014;-52
2023/08/23 11:04:36;;;;;;;;;;;28.00;48.50;;;;;;4973150;28;87763;-48
2023/08/23 11:07:01;;;;;;;;;;;28.00;48.50;;;;;;4979089;28;88080;-44
2023/08/23 11:09:27;;;;;;;;;;;28.00;48.90;;;;;;4975829;28;88381;-47
2023/08/23 11:11:53;;;;;;;;;;;28.00;49.30;;;;;;4973885;28;88180;-46
2023/08/23 11:14:18;;;;;;;;;;;28.00;50.10;;;;;;4975527;28;89715;-46
2023/08/23 11:16:44;;;;;;;;;;;27.90;49.50;;;;;;4975061;28;87581;-45
2023/08/23 11:19:10;;;;;;;;;;;27.90;47.70;;;;;;4973229;28;87370;-46
2023/08/23 11:21:36;;;;;;;;;;;27.90;49.30;;;;;;4975976;28;87454;-47
2023/08/23 11:24:05;;;;;;;;;;;27.90;50.50;;;;;;4972427;28;87577;-52
2023/08/23 11:26:33;;;;;;;;;;;28.00;50.00;;;;;;4976957;28;87793;-52
2023/08/23 11:29:00;;;;;;;;;;;28.00;50.00;;;;;;4980748;28;87982;-46
2023/08/23 11:31:26;;;;;;;;;;;27.90;50.80;;;;;;4973856;28;87455;-49
2023/08/23 11:33:51;;;;;;;;;;;27.90;50.70;;;;;;4975256;28;89106;-55
2023/08/23 11:36:18;;;;;;;;;;;28.00;48.10;;;;;;4971678;28;89201;-49
2023/08/23 11:38:45;;;;;;;;;;;28.00;47.60;;;;;;4972348;28;87143;-52
2023/08/23 11:41:11;;;;;;;;;;;28.10;45.50;;;;;;4977506;28;87773;-54
2023/08/23 11:43:42;;;;;;;;;;;28.20;46.60;;;;;;4973033;28;89351;-52
2023/08/23 11:46:08;;;;;;;;;;;28.20;46.40;;;;;;4972505;28;87311;-46
2023/08/23 11:48:34;;;;;;;;;;;28.20;46.30;;;;;;4972679;28;87495;-53
2023/08/23 11:51:01;;;;;;;;;;;28.30;45.90;;;;;;4977907;28;89463;-55
2023/08/23 11:53:26;;;;;;;;;;;28.40;45.20;;;;;;4972848;28;88632;-52
2023/08/23 11:55:54;;;;;;;;;;;28.30;45.20;;;;;;4975425;28;87285;-44
2023/08/23 11:58:20;;;;;;;;;;;28.30;44.40;;;;;;4973828;28;87244;-48
2023/08/23 12:00:47;;;;;;;;;;;28.40;44.10;;;;;;4972686;28;88227;-50
2023/08/23 12:03:12;;;;;;;;;;;28.50;42.90;;;;;;4974218;28;89474;-49
2023/08/23 12:05:38;;;;;;;;;;;28.50;42.80;;;;;;4972409;28;87945;-48
2023/08/23 12:08:03;;;;;;;;;;;28.50;44.00;;;;;;4975458;28;87346;-46
2023/08/23 12:10:29;;;;;;;;;;;28.50;44.70;;;;;;4974623;28;88508;-47
2023/08/23 12:12:55;;;;;;;;;;;28.60;47.00;;;;;;4975419;28;87189;-45
2023/08/23 12:15:20;;;;;;;;;;;28.60;45.50;;;;;;4976218;28;88046;-49
2023/08/23 12:17:46;;;;;;;;;;;28.70;45.30;;;;;;4974023;28;86415;-44
2023/08/23 12:20:11;;;;;;;;;;;28.70;44.20;;;;;;4974104;28;87015;-51
2023/08/23 12:22:37;;;;;;;;;;;28.80;44.90;;;;;;4972132;28;88080;-45
2023/08/23 12:25:04;;;;;;;;;;;28.80;44.90;;;;;;4974327;28;87835;-44
2023/08/23 12:27:29;;;;;;;;;;;28.90;45.70;;;;;;4974301;28;90459;-48
2023/08/23 12:29:55;;;;;;;;;;;28.90;45.10;;;;;;4969023;28;87975;-53
2023/08/23 12:32:20;;;;;;;;;;;28.90;44.50;;;;;;4974380;28;87433;-53
2023/08/23 12:34:46;;;;;;;;;;;28.90;44.60;;;;;;4975177;28;88017;-51
2023/08/23 12:37:12;;;;;;;;;;;29.00;45.00;;;;;;4973230;28;87149;-49
2023/08/23 12:39:37;;;;;;;;;;;29.10;45.30;;;;;;4973473;28;87560;-48
2023/08/23 12:42:03;;;;;;;;;;;29.00;44.90;;;;;;4972203;28;87544;-49
2023/08/23 12:44:30;;;;;;;;;;;29.00;45.40;;;;;;4972933;28;87121;-46
2023/08/23 12:46:55;;;;;;;;;;;28.90;44.50;;;;;;4970911;28;87399;-51
2023/08/23 12:49:22;;;;;;;;;;;28.90;44.20;;;;;;4973660;28;88919;-44
2023/08/23 12:51:47;;;;;;;;;;;28.90;44.30;;;;;;4972190;28;87155;-46
2023/08/23 12:54:13;;;;;;;;;;;28.90;45.00;;;;;;4976016;28;87542;-45
2023/08/23 12:56:39;;;;;;;;;;;29.00;44.60;;;;;;4972600;28;87093;-43
2023/08/23 12:59:05;;;;;;;;;;;28.90;44.60;;;;;;4973617;28;87978;-46
2023/08/23 13:01:31;;;;;;;;;;;28.90;44.60;;;;;;4970975;28;87996;-44
2023/08/23 13:03:56;;;;;;;;;;;29.00;45.10;;;;;;4971105;28;87028;-42
2023/08/23 13:06:22;;;;;;;;;;;29.00;45.30;;;;;;4971950;28;87252;-42
2023/08/23 13:08:47;;;;;;;;;;;29.10;45.30;;;;;;4973887;28;88001;-42
2023/08/23 13:11:13;;;;;;;;;;;29.10;45.40;;;;;;4973345;28;87218;-43
2023/08/23 13:13:39;;;;;;;;;;;29.20;45.50;;;;;;4972763;28;87918;-42
2023/08/23 13:16:05;;;;;;;;;;;29.20;45.50;;;;;;4972459;28;88466;-42
2023/08/23 13:18:32;;;;;;;;;;;29.20;45.60;;;;;;5005574;28;87049;-43
2023/08/23 13:20:58;;;;;;;;;;;29.20;45.80;;;;;;4970406;28;88922;-43
2023/08/23 13:23:23;;;;;;;;;;;29.20;45.90;;;;;;4974544;28;87227;-45
2023/08/23 13:25:49;;;;;;;;;;;29.20;46.00;;;;;;4972175;28;87375;-48
2023/08/23 13:28:15;;;;;;;;;;;29.20;46.80;;;;;;4971509;28;88206;-49
2023/08/23 13:30:40;;;;;;;;;;;29.10;45.90;;;;;;4971401;28;86407;-48
2023/08/23 13:33:06;;;;;;;;;;;29.20;45.30;;;;;;4972722;28;87101;-51
2023/08/23 13:35:32;;;;;;;;;;;29.10;45.60;;;;;;4972543;28;87822;-49
2023/08/23 13:37:57;;;;;;;;;;;29.00;44.40;;;;;;4974005;28;88291;-49
2023/08/23 13:40:23;;;;;;;;;;;29.10;45.20;;;;;;4973646;28;88119;-48
2023/08/23 13:42:49;;;;;;;;;;;29.10;44.50;;;;;;4972319;28;87323;-50
2023/08/23 13:45:14;;;;;;;;;;;29.10;44.40;;;;;;4970369;28;87227;-50
2023/08/23 13:47:40;;;;;;;;;;;29.10;44.20;;;;;;4970858;28;88249;-51
2023/08/23 13:50:06;;;;;;;;;;;29.10;44.20;;;;;;4971939;28;87865;-51
2023/08/23 13:52:32;;;;;;;;;;;29.10;44.70;;;;;;4972175;28;87467;-55
2023/08/23 13:54:57;;;;;;;;;;;29.20;44.30;;;;;;4972126;28;86483;-46
2023/08/23 13:57:24;;;;;;;;;;;29.20;45.50;;;;;;4971717;28;87226;-51
2023/08/23 13:59:49;;;;;;;;;;;29.20;44.10;;;;;;4976143;28;87325;-46
2023/08/23 14:02:15;;;;;;;;;;;29.20;44.40;;;;;;4973070;28;88211;-47
2023/08/23 14:04:40;;;;;;;;;;;29.30;43.60;;;;;;4970291;28;88374;-48
2023/08/23 14:07:06;;;;;;;;;;;29.30;43.80;;;;;;4972616;28;88167;-48
2023/08/23 14:09:32;;;;;;;;;;;29.30;43.80;;;;;;4970841;28;87141;-47